Accueil
METAR-TAF:

METAR-TAF

Aéroports :

Aéroport de Carcassonne Salvaza

Carcassonne, France

latitude: 43-13N, longitude: 002-19E, altitude: 130 m

Observation

Le bulletin a été fait il y a 23 minutes, à 18:00 UTC
Vent 7 kt de ouest
Température 18°C
Humidité 30%
Pression 1022 hPa
Visibilité 10 km ou plus
pas de nuages en-dessous de 1500 mètres et pas de cumulonimbus.

METAR: LFMK 241800Z AUTO 28007KT CAVOK 18/M00 Q1022 NOSIG

Heure: 19:23 (18:23 UTC)

Prévision

Le bulletin a été fait il y a 4 heures et 23 minutes, à 14:00 UTC
Prévision valable du 24 à 15 UTC au 25 à 15 UTC
Vent 12 kt de ouest
Visibilité 10 km ou plus
pas de nuages en-dessous de 1500 mètres et pas de cumulonimbus.
Temporairement
du 25 à 08 UTC au 25 à 09 UTC
Vent 20 kt de ouest avec des rafales jusqu'à 35 kt

TAF: LFMK 241400Z 2415/2515 28012KT CAVOK TEMPO 2508/2509 27020G35KT

Observations et prévisions météorologiques de plus de 4000 aéroports (messages METAR et TAF).

Les stations disponibles sont représentées par des disques jaunes et rouges sur la carte.

Passer la souris dessus pour voir le nom de la station.

Cliquer dessus pour voir les observations et prévisions météorologiques.

Pour changer de carte: cliquez sur les boutons verts avec une croix noire pour zoomer, sur le bouton vert avec un tiret pour effectuer un zoom arrière, ou sur les flèches vertes pour les cartes adjacentes.


METAR-TAF: